createdAt,value
2023-01-26T00:01:46.074Z,101309.34
2023-01-26T00:03:47.871Z,101311.56
2023-01-26T00:05:49.388Z,101312.41
2023-01-26T00:07:52.301Z,101314.41
2023-01-26T00:09:53.853Z,101314.00
2023-01-26T00:11:55.408Z,101310.34
2023-01-26T00:13:58.450Z,101303.00
2023-01-26T00:16:00.331Z,101305.16
2023-01-26T00:18:03.242Z,101306.75
2023-01-26T00:20:05.421Z,101307.41
2023-01-26T00:22:06.920Z,101304.81
2023-01-26T00:24:09.831Z,101292.47
2023-01-26T00:26:14.790Z,101290.59
2023-01-26T00:28:16.511Z,101289.44
2023-01-26T00:30:18.306Z,101275.72
2023-01-26T00:32:19.842Z,101282.47
2023-01-26T00:34:21.658Z,101275.47
2023-01-26T00:36:23.460Z,101271.16
2023-01-26T00:38:25.014Z,101270.38
2023-01-26T00:40:27.878Z,101268.44
2023-01-26T00:42:29.443Z,101284.03
2023-01-26T00:44:30.949Z,101278.00
2023-01-26T00:46:32.574Z,101277.44
2023-01-26T00:48:34.104Z,101266.94
2023-01-26T00:50:35.649Z,101269.19
2023-01-26T00:52:37.112Z,101263.47
2023-01-26T00:54:38.647Z,101264.50
2023-01-26T00:56:41.478Z,101271.50
2023-01-26T00:58:43.066Z,101275.66
2023-01-26T01:00:44.746Z,101271.84
2023-01-26T01:02:46.294Z,101268.13
2023-01-26T01:04:47.756Z,101265.47
2023-01-26T01:06:49.325Z,101268.13
2023-01-26T01:08:50.855Z,101263.94
2023-01-26T01:11:02.912Z,101259.41
2023-01-26T01:13:05.895Z,101261.94
2023-01-26T01:15:08.601Z,101259.50
2023-01-26T01:17:10.091Z,101261.00
2023-01-26T01:19:13.919Z,101260.78
2023-01-26T01:21:17.199Z,101262.28
2023-01-26T01:23:19.230Z,101254.50
2023-01-26T01:25:20.688Z,101246.91
2023-01-26T01:27:22.317Z,101249.00
2023-01-26T01:29:25.146Z,101249.91
2023-01-26T01:31:26.765Z,101249.31
2023-01-26T01:33:28.299Z,101253.63
2023-01-26T01:35:29.756Z,101247.94
2023-01-26T01:37:31.294Z,101250.63
2023-01-26T01:39:32.814Z,101253.06
2023-01-26T01:41:34.577Z,101251.66
2023-01-26T01:43:37.200Z,101244.47
2023-01-26T01:45:44.919Z,101246.31
2023-01-26T01:47:46.483Z,101249.59
2023-01-26T01:49:50.920Z,101250.63
2023-01-26T01:51:56.976Z,101255.19
2023-01-26T01:54:02.330Z,101261.31
2023-01-26T01:56:09.363Z,101255.53
2023-01-26T01:58:12.066Z,101252.50
2023-01-26T02:00:17.503Z,101254.59
2023-01-26T02:04:29.464Z,101240.97
2023-01-26T02:06:36.058Z,101241.19
2023-01-26T02:08:40.230Z,101251.91
2023-01-26T02:10:43.702Z,101240.97
2023-01-26T02:12:47.537Z,101248.41
2023-01-26T02:14:51.961Z,101244.09
2023-01-26T02:16:53.441Z,101249.31
2023-01-26T02:18:54.945Z,101242.34
2023-01-26T02:21:00.728Z,101245.00
2023-01-26T02:23:10.952Z,101240.69
2023-01-26T02:25:21.878Z,101241.75
2023-01-26T02:27:24.888Z,101238.25
2023-01-26T02:29:26.566Z,101229.41
2023-01-26T02:31:28.985Z,101233.81
2023-01-26T02:33:32.209Z,101229.72
2023-01-26T02:35:33.817Z,101231.00
2023-01-26T02:37:35.561Z,101222.91
2023-01-26T02:39:44.527Z,101241.69
2023-01-26T02:41:51.255Z,101227.38
2023-01-26T02:43:54.258Z,101229.66
2023-01-26T02:45:55.784Z,101230.94
2023-01-26T02:47:57.401Z,101230.56
2023-01-26T02:49:58.948Z,101228.50
2023-01-26T02:52:00.691Z,101229.38
2023-01-26T02:54:02.201Z,101232.28
2023-01-26T02:56:04.093Z,101227.19
2023-01-26T02:58:05.655Z,101230.66
2023-01-26T03:00:10.909Z,101225.31
2023-01-26T03:02:12.652Z,101226.13
2023-01-26T03:04:14.166Z,101220.69
2023-01-26T03:06:15.796Z,101228.06
2023-01-26T03:08:17.447Z,101209.78
2023-01-26T03:10:19.354Z,101211.84
2023-01-26T03:12:20.952Z,101214.63
2023-01-26T03:14:22.523Z,101215.44
2023-01-26T03:16:25.568Z,101206.34
2023-01-26T03:18:27.109Z,101203.91
2023-01-26T03:20:28.580Z,101201.94
2023-01-26T03:22:30.145Z,101200.88
2023-01-26T03:24:31.692Z,101192.88
2023-01-26T03:26:33.754Z,101198.22
2023-01-26T03:28:35.225Z,101196.13
2023-01-26T03:30:36.803Z,101189.97
2023-01-26T03:32:40.049Z,101196.22
2023-01-26T03:34:41.781Z,101197.03
2023-01-26T03:36:43.302Z,101195.38
2023-01-26T03:38:44.797Z,101187.16
2023-01-26T03:40:46.266Z,101195.38
2023-01-26T03:42:47.791Z,101193.53
2023-01-26T03:44:49.330Z,101187.38
2023-01-26T03:46:50.983Z,101184.69
2023-01-26T03:48:54.003Z,101179.00
2023-01-26T03:50:55.946Z,101180.19
2023-01-26T03:52:57.527Z,101184.34
2023-01-26T03:54:59.054Z,101177.34
2023-01-26T03:57:00.568Z,101175.50
2023-01-26T03:59:04.627Z,101185.97
2023-01-26T04:01:06.147Z,101176.47
2023-01-26T04:03:07.777Z,101169.59
2023-01-26T04:05:10.844Z,101173.56
2023-01-26T04:07:13.511Z,101170.88
2023-01-26T04:09:15.067Z,101174.16
2023-01-26T04:11:16.647Z,101171.03
2023-01-26T04:13:19.122Z,101175.19
2023-01-26T04:15:20.760Z,101175.28
2023-01-26T04:17:22.287Z,101175.16
2023-01-26T04:19:23.843Z,101178.38
2023-01-26T04:21:26.745Z,101175.50
2023-01-26T04:23:28.258Z,101174.91
2023-01-26T04:25:29.774Z,101170.59
2023-01-26T04:27:31.322Z,101166.47
2023-01-26T04:29:35.838Z,101161.31
2023-01-26T04:31:38.171Z,101165.19
2023-01-26T04:33:39.709Z,101156.13
2023-01-26T04:35:41.213Z,101157.97
2023-01-26T04:37:44.133Z,101158.44
2023-01-26T04:39:45.691Z,101153.44
2023-01-26T04:41:47.220Z,101156.31
2023-01-26T04:43:49.238Z,101150.19
2023-01-26T04:45:58.275Z,101144.16
2023-01-26T04:47:59.843Z,101144.25
2023-01-26T04:50:01.354Z,101135.63
2023-01-26T04:52:03.035Z,101138.88
2023-01-26T04:54:06.012Z,101138.56
2023-01-26T04:56:08.575Z,101133.69
2023-01-26T04:58:10.048Z,101129.16
2023-01-26T05:00:12.775Z,101127.88
2023-01-26T05:02:14.526Z,101134.16
2023-01-26T05:04:16.104Z,101131.63
2023-01-26T05:06:17.668Z,101133.81
2023-01-26T05:08:20.089Z,101131.75
2023-01-26T05:10:22.996Z,101127.56
2023-01-26T05:12:24.553Z,101125.34
2023-01-26T05:14:26.201Z,101127.34
2023-01-26T05:16:28.123Z,101127.34
2023-01-26T05:18:29.889Z,101121.63
2023-01-26T05:20:32.297Z,101122.91
2023-01-26T05:22:33.814Z,101123.72
2023-01-26T05:24:35.401Z,101112.78
2023-01-26T05:26:38.256Z,101118.25
2023-01-26T05:28:40.087Z,101117.78
2023-01-26T05:30:41.607Z,101113.47
2023-01-26T05:32:43.109Z,101117.19
2023-01-26T05:34:44.730Z,101115.59
2023-01-26T05:36:46.205Z,101117.41
2023-01-26T05:38:47.747Z,101122.25
2023-01-26T05:40:49.293Z,101122.44
2023-01-26T05:42:52.662Z,101129.84
2023-01-26T05:44:54.339Z,101136.97
2023-01-26T05:46:55.938Z,101134.28
2023-01-26T05:48:57.431Z,101132.66
2023-01-26T05:50:58.943Z,101138.00
2023-01-26T05:53:00.590Z,101138.38
2023-01-26T05:55:04.813Z,101140.59
2023-01-26T05:57:12.404Z,101140.44
2023-01-26T05:59:15.302Z,101138.81
2023-01-26T06:01:16.809Z,101141.25
2023-01-26T06:03:18.375Z,101136.72
2023-01-26T06:05:19.955Z,101138.00
2023-01-26T06:07:21.552Z,101140.69
2023-01-26T06:09:24.706Z,101138.00
2023-01-26T06:11:28.066Z,101142.06
2023-01-26T06:13:29.855Z,101142.66
2023-01-26T06:15:32.697Z,101143.25
2023-01-26T06:17:34.215Z,101146.75
2023-01-26T06:19:35.871Z,101151.03
2023-01-26T06:21:37.826Z,101153.13
2023-01-26T06:23:39.342Z,101158.22
2023-01-26T06:25:40.995Z,101160.09
2023-01-26T06:27:42.729Z,101162.34
2023-01-26T06:29:44.287Z,101172.44
2023-01-26T06:31:47.140Z,101168.56
2023-01-26T06:33:48.762Z,101173.13
2023-01-26T06:35:50.298Z,101166.13
2023-01-26T06:37:52.024Z,101169.84
2023-01-26T06:39:53.684Z,101163.81
2023-01-26T06:41:55.213Z,101168.56
2023-01-26T06:43:56.710Z,101164.50
2023-01-26T06:45:58.969Z,101165.53
2023-01-26T06:48:01.924Z,101158.34
2023-01-26T06:50:03.855Z,101164.13
2023-01-26T06:52:22.137Z,101161.47
2023-01-26T06:54:23.704Z,101165.84
2023-01-26T06:56:25.535Z,101161.47
2023-01-26T06:58:27.125Z,101167.25
2023-01-26T07:00:28.743Z,101168.53
2023-01-26T07:02:30.416Z,101159.56
2023-01-26T07:04:33.360Z,101163.03
2023-01-26T07:06:34.941Z,101160.50
2023-01-26T07:08:36.678Z,101166.47
2023-01-26T07:10:38.695Z,101169.34
2023-01-26T07:12:41.544Z,101171.19
2023-01-26T07:14:43.118Z,101163.38
2023-01-26T07:16:44.811Z,101164.47
2023-01-26T07:18:46.377Z,101163.38
2023-01-26T07:20:49.250Z,101164.22
2023-01-26T07:22:51.342Z,101163.88
2023-01-26T07:24:52.913Z,101166.06
2023-01-26T07:26:55.268Z,101167.34
2023-01-26T07:28:56.848Z,101173.28
2023-01-26T07:30:58.388Z,101171.19
2023-01-26T07:33:00.200Z,101177.34
2023-01-26T07:35:01.787Z,101170.84
2023-01-26T07:37:04.699Z,101171.19
2023-01-26T07:39:08.497Z,101166.06
2023-01-26T07:41:12.827Z,101167.69
2023-01-26T07:43:15.531Z,101174.69
2023-01-26T07:45:17.143Z,101174.91
2023-01-26T07:47:18.669Z,101175.44
2023-01-26T07:49:20.173Z,101170.94
2023-01-26T07:51:21.791Z,101175.34
2023-01-26T07:53:24.838Z,101177.88
2023-01-26T07:55:26.436Z,101176.81
2023-01-26T07:57:28.011Z,101186.28
2023-01-26T07:59:30.078Z,101183.16
2023-01-26T08:01:31.647Z,101182.69
2023-01-26T08:03:33.174Z,101191.06
2023-01-26T08:05:34.753Z,101184.56
2023-01-26T08:07:36.417Z,101182.41
2023-01-26T08:09:39.341Z,101188.00
2023-01-26T08:11:40.899Z,101182.94
2023-01-26T08:13:42.499Z,101177.91
2023-01-26T08:15:44.042Z,101181.38
2023-01-26T08:17:45.585Z,101171.81
2023-01-26T08:19:47.260Z,101184.13
2023-01-26T08:21:48.784Z,101183.31
2023-01-26T08:23:51.045Z,101182.38
2023-01-26T08:25:54.001Z,101182.88
2023-01-26T08:27:55.546Z,101193.06
2023-01-26T08:29:57.061Z,101192.81
2023-01-26T08:31:58.637Z,101193.94
2023-01-26T08:34:00.232Z,101197.78
2023-01-26T08:36:02.117Z,101192.22
2023-01-26T08:38:04.080Z,101194.28
2023-01-26T08:40:07.174Z,101197.63
2023-01-26T08:42:10.151Z,101204.69
2023-01-26T08:44:11.961Z,101204.69
2023-01-26T08:46:13.807Z,101207.53
2023-01-26T08:48:15.572Z,101201.22
2023-01-26T08:50:17.393Z,101202.00
2023-01-26T08:52:20.996Z,101199.34
2023-01-26T08:54:22.537Z,101211.25
2023-01-26T08:56:24.231Z,101205.72
2023-01-26T08:58:27.172Z,101203.91
2023-01-26T09:00:29.035Z,101205.50
2023-01-26T09:02:30.865Z,101205.44
2023-01-26T09:04:33.343Z,101199.06
2023-01-26T09:06:35.062Z,101208.31
2023-01-26T09:08:36.720Z,101202.22
2023-01-26T09:10:38.847Z,101210.84
2023-01-26T09:12:41.251Z,101214.56
2023-01-26T09:14:44.219Z,101207.78
2023-01-26T09:16:45.815Z,101206.59
2023-01-26T09:18:49.909Z,101204.28
2023-01-26T09:20:51.578Z,101207.78
2023-01-26T09:22:53.296Z,101209.88
2023-01-26T09:24:54.924Z,101209.88
2023-01-26T09:26:56.462Z,101206.31
2023-01-26T09:28:57.977Z,101207.66
2023-01-26T09:31:04.604Z,101204.63
2023-01-26T09:33:06.275Z,101217.78
2023-01-26T09:35:08.779Z,101209.28
2023-01-26T09:37:10.517Z,101217.47
2023-01-26T09:39:12.103Z,101212.31
2023-01-26T09:41:28.743Z,101216.06
2023-01-26T09:43:36.418Z,101206.63
2023-01-26T09:45:46.709Z,101210.31
2023-01-26T09:48:03.009Z,101210.19
2023-01-26T09:50:11.034Z,101207.44
2023-01-26T09:52:20.227Z,101207.59
2023-01-26T09:54:28.311Z,101207.44
2023-01-26T09:56:31.203Z,101207.22
2023-01-26T09:58:37.528Z,101202.78
2023-01-26T10:00:44.304Z,101202.91
2023-01-26T10:03:00.683Z,101198.53
2023-01-26T10:05:07.417Z,101198.59
2023-01-26T10:07:11.365Z,101201.50
2023-01-26T10:09:18.685Z,101192.75
2023-01-26T10:11:26.697Z,101190.66
2023-01-26T10:13:29.709Z,101195.31
2023-01-26T10:15:37.069Z,101195.94
2023-01-26T10:17:41.530Z,101189.09
2023-01-26T10:19:49.155Z,101184.72
2023-01-26T10:21:53.014Z,101187.41
2023-01-26T10:23:55.154Z,101190.75
2023-01-26T10:26:02.344Z,101187.72
2023-01-26T10:28:12.808Z,101193.19
2023-01-26T10:30:15.761Z,101191.34
2023-01-26T10:32:18.219Z,101188.66
2023-01-26T10:34:23.706Z,101181.38
2023-01-26T10:36:30.077Z,101182.41
2023-01-26T10:38:42.590Z,101176.63
2023-01-26T10:40:44.649Z,101176.28
2023-01-26T10:42:56.573Z,101179.16
2023-01-26T10:45:00.380Z,101183.31
2023-01-26T10:47:05.448Z,101177.31
2023-01-26T10:49:15.978Z,101173.97
2023-01-26T10:51:24.086Z,101174.19
2023-01-26T10:53:28.500Z,101171.53
2023-01-26T10:55:31.648Z,101165.09
2023-01-26T10:57:38.339Z,101159.56
2023-01-26T10:59:43.757Z,101169.22
2023-01-26T11:01:53.485Z,101165.84
2023-01-26T11:04:06.732Z,101168.97
2023-01-26T11:06:14.379Z,101160.84
2023-01-26T11:10:52.307Z,101160.34
2023-01-26T11:13:07.927Z,101149.53
2023-01-26T11:15:17.144Z,101147.69
2023-01-26T11:17:25.137Z,101153.25
2023-01-26T11:19:42.163Z,101153.84
2023-01-26T11:21:49.200Z,101151.53
2023-01-26T11:23:58.574Z,101147.34
2023-01-26T11:26:24.154Z,101142.25
2023-01-26T11:28:36.645Z,101147.34
2023-01-26T11:30:55.369Z,101144.13
2023-01-26T11:33:01.252Z,101148.88
2023-01-26T11:35:14.139Z,101147.47
2023-01-26T11:37:38.578Z,101143.16
2023-01-26T11:39:51.837Z,101137.34
2023-01-26T11:42:08.144Z,101139.56
2023-01-26T11:44:21.595Z,101130.28
2023-01-26T11:46:49.953Z,101123.44
2023-01-26T11:49:03.369Z,101126.38
2023-01-26T11:51:12.158Z,101125.69
2023-01-26T11:53:46.190Z,101116.63
2023-01-26T11:56:04.286Z,101114.22
2023-01-26T11:58:26.179Z,101118.28
2023-01-26T12:00:37.557Z,101106.78
2023-01-26T12:02:40.725Z,101116.91
2023-01-26T12:04:45.760Z,101111.66
2023-01-26T12:06:50.429Z,101116.44
2023-01-26T12:09:00.017Z,101113.75
2023-01-26T12:11:06.148Z,101110.69
2023-01-26T12:13:16.355Z,101112.50
2023-01-26T12:15:21.991Z,101109.81
2023-01-26T12:17:43.667Z,101106.91
2023-01-26T12:19:51.697Z,101103.63
2023-01-26T12:21:57.457Z,101093.78
2023-01-26T12:24:02.932Z,101095.63
2023-01-26T12:26:13.844Z,101096.53
2023-01-26T12:28:21.953Z,101092.59
2023-01-26T12:30:34.315Z,101099.81
2023-01-26T12:32:35.951Z,101087.03
2023-01-26T12:34:37.618Z,101092.16
2023-01-26T12:36:47.149Z,101084.56
2023-01-26T12:39:11.734Z,101082.84
2023-01-26T12:41:19.488Z,101076.56
2023-01-26T12:43:39.188Z,101072.41
2023-01-26T12:45:47.338Z,101071.81
2023-01-26T12:47:54.645Z,101060.88
2023-01-26T12:50:11.736Z,101061.56
2023-01-26T12:52:20.079Z,101068.88
2023-01-26T12:54:31.544Z,101062.69
2023-01-26T12:56:37.541Z,101060.75
2023-01-26T12:58:43.018Z,101065.50
2023-01-26T13:01:01.991Z,101061.53
2023-01-26T13:03:13.791Z,101057.94
2023-01-26T13:05:28.338Z,101065.84
2023-01-26T13:07:33.663Z,101055.28
2023-01-26T13:09:35.296Z,101055.75
2023-01-26T13:11:50.189Z,101051.44
2023-01-26T13:13:56.806Z,101053.88
2023-01-26T13:16:34.450Z,101058.03
2023-01-26T13:18:49.032Z,101058.78
2023-01-26T13:20:50.730Z,101054.13
2023-01-26T13:22:54.123Z,101058.94
2023-01-26T13:24:58.175Z,101054.19
2023-01-26T13:26:59.897Z,101063.84
2023-01-26T13:29:28.235Z,101062.34
2023-01-26T13:31:32.974Z,101054.94
2023-01-26T13:33:38.626Z,101060.47
2023-01-26T13:35:40.806Z,101059.44
2023-01-26T13:37:49.342Z,101048.56
2023-01-26T13:39:56.763Z,101053.00
2023-01-26T13:41:58.307Z,101058.03
2023-01-26T13:44:10.231Z,101058.28
2023-01-26T13:46:18.579Z,101055.38
2023-01-26T13:48:34.049Z,101062.59
2023-01-26T13:50:37.906Z,101066.81
2023-01-26T13:52:42.565Z,101059.69
2023-01-26T13:54:45.544Z,101066.84
2023-01-26T13:57:01.167Z,101060.72
2023-01-26T13:59:09.004Z,101071.56
2023-01-26T14:01:12.961Z,101072.97
2023-01-26T14:03:20.959Z,101071.88
2023-01-26T14:05:22.679Z,101072.34
2023-01-26T14:07:29.180Z,101075.69
2023-01-26T14:09:33.615Z,101068.28
2023-01-26T14:11:36.398Z,101071.13
2023-01-26T14:13:38.823Z,101070.63
2023-01-26T14:15:41.115Z,101075.00
2023-01-26T14:17:49.212Z,101073.84
2023-01-26T14:19:50.824Z,101070.34
2023-01-26T14:21:54.690Z,101079.78
2023-01-26T14:23:57.718Z,101068.28
2023-01-26T14:26:02.224Z,101078.97
2023-01-26T14:28:04.440Z,101081.41
2023-01-26T14:30:22.045Z,101077.69
2023-01-26T14:32:23.961Z,101068.88
2023-01-26T14:34:27.897Z,101077.56
2023-01-26T14:36:31.101Z,101075.09
2023-01-26T14:38:43.790Z,101075.69
2023-01-26T14:40:48.666Z,101074.38
2023-01-26T14:42:53.258Z,101081.00
2023-01-26T14:44:54.805Z,101076.31
2023-01-26T14:47:02.364Z,101089.00
2023-01-26T14:49:07.896Z,101092.53
2023-01-26T14:51:17.442Z,101093.72
2023-01-26T14:53:22.025Z,101099.69
2023-01-26T14:55:27.282Z,101103.38
2023-01-26T14:57:31.187Z,101105.22
2023-01-26T14:59:36.460Z,101101.16
2023-01-26T15:01:38.133Z,101098.88
2023-01-26T15:03:40.059Z,101105.22
2023-01-26T15:05:45.050Z,101103.00
2023-01-26T15:07:50.673Z,101103.31
2023-01-26T15:09:52.689Z,101112.97
2023-01-26T15:11:56.582Z,101111.47
2023-01-26T15:13:59.957Z,101118.00
2023-01-26T15:16:04.430Z,101115.94
2023-01-26T15:18:17.809Z,101116.88
2023-01-26T15:20:41.676Z,101115.09
2023-01-26T15:22:49.062Z,101124.16
2023-01-26T15:25:09.153Z,101118.00
2023-01-26T15:27:12.183Z,101120.53
2023-01-26T15:29:24.249Z,101117.47
2023-01-26T15:31:33.320Z,101120.16
2023-01-26T15:33:40.478Z,101124.47
2023-01-26T15:35:57.283Z,101118.09
2023-01-26T15:38:03.550Z,101113.13
2023-01-26T15:40:06.064Z,101115.63
2023-01-26T15:42:13.059Z,101113.47
2023-01-26T15:44:16.186Z,101111.63
2023-01-26T15:46:19.398Z,101108.53
2023-01-26T15:48:21.843Z,101107.63
2023-01-26T15:50:28.133Z,101093.34
2023-01-26T15:52:31.215Z,101092.25
2023-01-26T15:54:32.748Z,101087.50
2023-01-26T15:56:34.300Z,101090.19
2023-01-26T15:58:48.252Z,101083.72
2023-01-26T16:00:50.532Z,101085.34
2023-01-26T16:02:53.523Z,101090.66
2023-01-26T16:04:55.048Z,101089.81
2023-01-26T16:06:56.662Z,101095.50
2023-01-26T16:08:59.251Z,101093.16
2023-01-26T16:11:11.465Z,101096.03
2023-01-26T16:13:14.980Z,101103.84
2023-01-26T16:15:31.035Z,101106.50
2023-01-26T16:17:32.622Z,101102.88
2023-01-26T16:19:35.914Z,101107.91
2023-01-26T16:21:40.763Z,101101.16
2023-01-26T16:23:42.612Z,101106.03
2023-01-26T16:25:44.101Z,101102.38
2023-01-26T16:27:45.628Z,101106.69
2023-01-26T16:29:47.197Z,101108.34
2023-01-26T16:31:48.862Z,101103.97
2023-01-26T16:33:51.045Z,101107.22
2023-01-26T16:35:53.999Z,101113.75
2023-01-26T16:37:55.541Z,101110.13
2023-01-26T16:39:57.121Z,101104.47
2023-01-26T16:41:58.812Z,101105.06
2023-01-26T16:44:01.814Z,101095.91
2023-01-26T16:46:03.677Z,101096.88
2023-01-26T16:48:11.689Z,101091.03
2023-01-26T16:50:13.351Z,101091.88
2023-01-26T16:52:16.581Z,101094.63
2023-01-26T16:54:18.075Z,101091.81
2023-01-26T16:56:20.299Z,101100.34
2023-01-26T16:58:22.387Z,101102.69
2023-01-26T17:00:24.456Z,101098.97
2023-01-26T17:02:33.227Z,101099.38
2023-01-26T17:04:34.962Z,101094.47
2023-01-26T17:06:36.510Z,101099.22
2023-01-26T17:08:39.513Z,101109.91
2023-01-26T17:10:52.040Z,101116.81
2023-01-26T17:13:02.693Z,101119.03
2023-01-26T17:15:05.741Z,101108.78
2023-01-26T17:17:07.589Z,101105.75
2023-01-26T17:19:09.712Z,101107.16
2023-01-26T17:21:11.481Z,101104.88
2023-01-26T17:23:13.114Z,101112.97
2023-01-26T17:25:17.599Z,101112.97
2023-01-26T17:27:19.462Z,101107.84
2023-01-26T17:29:21.390Z,101117.47
2023-01-26T17:31:23.991Z,101110.91
2023-01-26T17:33:25.628Z,101114.28
2023-01-26T17:35:27.490Z,101113.78
2023-01-26T17:37:29.127Z,101124.47
2023-01-26T17:39:30.674Z,101120.63
2023-01-26T17:41:33.698Z,101119.00
2023-01-26T17:43:35.357Z,101123.75
2023-01-26T17:45:37.016Z,101121.66
2023-01-26T17:47:38.614Z,101127.81
2023-01-26T17:49:40.274Z,101125.38
2023-01-26T17:51:41.845Z,101126.78
2023-01-26T17:53:45.703Z,101132.91
2023-01-26T17:55:47.378Z,101131.13
2023-01-26T17:57:50.302Z,101126.41
2023-01-26T17:59:51.834Z,101124.91
2023-01-26T18:01:53.522Z,101124.34
2023-01-26T18:03:56.145Z,101125.13
2023-01-26T18:05:57.991Z,101120.31
2023-01-26T18:07:59.543Z,101127.84
2023-01-26T18:10:02.701Z,101128.69
2023-01-26T18:12:04.876Z,101125.19
2023-01-26T18:14:09.245Z,101126.03
2023-01-26T18:16:15.192Z,101126.03
2023-01-26T18:18:17.002Z,101126.03
2023-01-26T18:20:21.605Z,101128.91
2023-01-26T18:22:23.140Z,101129.13
2023-01-26T18:24:26.867Z,101129.25
2023-01-26T18:26:31.716Z,101130.03
2023-01-26T18:28:33.317Z,101123.88
2023-01-26T18:30:36.436Z,101123.63
2023-01-26T18:32:38.034Z,101127.81
2023-01-26T18:34:42.852Z,101125.25
2023-01-26T18:36:44.450Z,101123.31
2023-01-26T18:38:49.524Z,101121.44
2023-01-26T18:40:51.099Z,101122.84
2023-01-26T18:42:54.324Z,101125.66
2023-01-26T18:44:55.979Z,101119.47
2023-01-26T18:46:58.925Z,101121.34
2023-01-26T18:49:00.764Z,101118.09
2023-01-26T18:51:03.763Z,101119.72
2023-01-26T18:53:05.319Z,101123.06
2023-01-26T18:55:08.308Z,101122.69
2023-01-26T18:57:09.934Z,101125.19
2023-01-26T18:59:11.590Z,101123.78
2023-01-26T19:01:15.365Z,101119.63
2023-01-26T19:03:18.941Z,101125.13
2023-01-26T19:05:20.488Z,101121.00
2023-01-26T19:07:22.098Z,101123.50
2023-01-26T19:09:23.700Z,101125.13
2023-01-26T19:11:28.455Z,101124.16
2023-01-26T19:13:30.276Z,101123.63
2023-01-26T19:15:32.003Z,101125.50
2023-01-26T19:17:33.605Z,101129.13
2023-01-26T19:19:36.565Z,101122.50
2023-01-26T19:21:40.309Z,101125.06
2023-01-26T19:23:41.992Z,101123.78
2023-01-26T19:25:43.663Z,101129.72
2023-01-26T19:27:45.217Z,101135.34
2023-01-26T19:29:46.775Z,101131.06
2023-01-26T19:31:49.110Z,101138.84
2023-01-26T19:33:51.248Z,101128.97
2023-01-26T19:35:57.610Z,101126.22
2023-01-26T19:37:59.344Z,101123.56
2023-01-26T19:40:00.914Z,101123.34
2023-01-26T19:42:02.521Z,101123.91
2023-01-26T19:44:04.357Z,101127.50
2023-01-26T19:46:06.393Z,101132.47
2023-01-26T19:48:08.098Z,101127.34
2023-01-26T19:50:10.990Z,101131.50
2023-01-26T19:52:17.165Z,101126.16
2023-01-26T19:54:18.986Z,101125.13
2023-01-26T19:56:22.777Z,101121.91
2023-01-26T19:58:24.674Z,101123.78
2023-01-26T20:00:26.636Z,101126.91
2023-01-26T20:02:28.239Z,101125.19
2023-01-26T20:04:29.880Z,101118.44
2023-01-26T20:06:33.703Z,101124.22
2023-01-26T20:08:36.667Z,101120.50
2023-01-26T20:10:38.288Z,101121.19
2023-01-26T20:12:39.870Z,101118.59
2023-01-26T20:14:41.607Z,101120.38
2023-01-26T20:16:43.220Z,101118.75
2023-01-26T20:18:44.846Z,101120.81
2023-01-26T20:20:49.339Z,101121.69
2023-01-26T20:22:50.944Z,101130.84
2023-01-26T20:24:54.090Z,101134.56
2023-01-26T20:26:56.317Z,101133.28
2023-01-26T20:28:58.551Z,101131.88
2023-01-26T20:31:05.309Z,101135.84
2023-01-26T20:33:07.712Z,101132.88
2023-01-26T20:35:11.753Z,101126.06
2023-01-26T20:37:14.455Z,101123.03
2023-01-26T20:39:17.972Z,101125.28
2023-01-26T20:41:22.759Z,101118.97
2023-01-26T20:43:24.381Z,101119.28
2023-01-26T20:45:34.990Z,101122.78
2023-01-26T20:47:36.553Z,101118.09
2023-01-26T20:49:38.144Z,101118.91
2023-01-26T20:51:40.512Z,101120.78
2023-01-26T20:53:42.693Z,101118.97
2023-01-26T20:55:44.339Z,101111.13
2023-01-26T20:57:47.346Z,101111.28
2023-01-26T20:59:48.901Z,101112.31
2023-01-26T21:01:50.677Z,101106.59
2023-01-26T21:03:52.660Z,101108.03
2023-01-26T21:05:54.372Z,101103.22
2023-01-26T21:07:55.967Z,101099.38
2023-01-26T21:09:57.601Z,101105.50
2023-01-26T21:11:59.197Z,101100.53
2023-01-26T21:14:02.774Z,101105.06
2023-01-26T21:16:07.244Z,101105.88
2023-01-26T21:18:08.847Z,101097.38
2023-01-26T21:20:11.595Z,101098.41
2023-01-26T21:22:13.382Z,101100.78
2023-01-26T21:24:15.072Z,101098.72
2023-01-26T21:26:20.237Z,101096.63
2023-01-26T21:28:23.309Z,101096.41
2023-01-26T21:30:26.321Z,101090.47
2023-01-26T21:32:27.921Z,101093.72
2023-01-26T21:34:29.632Z,101102.94
2023-01-26T21:36:32.200Z,101088.69
2023-01-26T21:38:36.544Z,101088.94
2023-01-26T21:40:38.156Z,101093.88
2023-01-26T21:42:39.889Z,101088.78
2023-01-26T21:44:41.611Z,101091.59
2023-01-26T21:46:46.439Z,101085.44
2023-01-26T21:48:47.953Z,101084.63
2023-01-26T21:50:49.467Z,101075.13
2023-01-26T21:52:51.146Z,101069.78
2023-01-26T21:54:52.693Z,101070.81
2023-01-26T21:56:54.248Z,101073.94
2023-01-26T21:58:55.812Z,101070.91
2023-01-26T22:01:05.401Z,101060.97
2023-01-26T22:03:08.788Z,101065.47
2023-01-26T22:05:10.316Z,101059.03
2023-01-26T22:07:11.836Z,101061.09
2023-01-26T22:09:15.075Z,101065.41
2023-01-26T22:11:16.728Z,101067.88
2023-01-26T22:13:18.274Z,101067.88
2023-01-26T22:15:19.782Z,101056.84
2023-01-26T22:17:21.401Z,101054.22
2023-01-26T22:19:24.254Z,101055.88
2023-01-26T22:21:25.722Z,101050.53
2023-01-26T22:23:30.314Z,101057.88
2023-01-26T22:25:36.484Z,101052.38
2023-01-26T22:27:39.496Z,101055.41
2023-01-26T22:29:41.144Z,101053.31
2023-01-26T22:31:42.680Z,101050.44
2023-01-26T22:33:44.237Z,101062.97
2023-01-26T22:35:47.171Z,101058.59
2023-01-26T22:37:48.711Z,101058.75
2023-01-26T22:39:50.318Z,101062.50
2023-01-26T22:41:51.881Z,101058.44
2023-01-26T22:43:54.651Z,101053.91
2023-01-26T22:46:02.930Z,101055.41
2023-01-26T22:48:05.166Z,101053.78
2023-01-26T22:50:07.501Z,101048.78
2023-01-26T22:52:10.783Z,101044.84
2023-01-26T22:54:12.496Z,101049.84
2023-01-26T22:56:14.041Z,101042.25
2023-01-26T22:58:15.594Z,101048.44
2023-01-26T23:00:17.146Z,101043.31
2023-01-26T23:02:18.703Z,101041.47
2023-01-26T23:04:20.317Z,101037.75
2023-01-26T23:06:22.201Z,101038.56
2023-01-26T23:08:25.120Z,101037.69
2023-01-26T23:10:27.223Z,101038.03
2023-01-26T23:12:28.791Z,101035.13
2023-01-26T23:14:31.352Z,101037.59
2023-01-26T23:16:32.925Z,101029.94
2023-01-26T23:18:35.177Z,101034.59
2023-01-26T23:20:36.727Z,101039.50
2023-01-26T23:22:38.275Z,101040.75
2023-01-26T23:24:41.221Z,101036.91
2023-01-26T23:26:42.824Z,101036.09
2023-01-26T23:28:45.166Z,101040.38
2023-01-26T23:30:47.103Z,101036.31
2023-01-26T23:32:48.660Z,101035.72
2023-01-26T23:34:50.226Z,101037.44
2023-01-26T23:36:51.814Z,101029.88
2023-01-26T23:38:53.496Z,101026.47
2023-01-26T23:40:56.888Z,101033.75